Retiro, Brazil

4:48 PM BRT on December 04, 2016 (GMT -0300)
Itaituba | | Change Station

Elev 112 ft 4.24 °S, 56.00 °W | Updated 48 minutes ago

Scattered Clouds
Scattered Clouds
90 °F
Feels Like 100 °F
N
5
Wind Variable Wind from ESE

Today
High -- | Low -- °F
--% Chance of Precip.
Yesterday
High -- | Low -- °F
Precip. -- in
Pressure 29.77 in
Visibility 4.3 miles
Clouds Few 2100 ft
Few 2400 ft
Scattered Clouds 10000 ft
Heat Index 100 °F
Dew Point 75 °F
Humidity 62%
Rainfall 0.00 in
Snow Depth Not available.
6:25 AM 6:47 PM
Waxing Crescent, 25% visible
METAR SBIH 041900Z 12004KT 7000 FEW021 FEW024TCU SCT100 32/24 Q1008
Pressure 29.77 in
Visibility 4.3 miles
Clouds Few 2100 ft
Few 2400 ft
Scattered Clouds 10000 ft
Heat Index 100 °F
Dew Point 75 °F
Humidity 62%
Rainfall 0.00 in
Snow Depth Not available.
6:25 AM 6:47 PM
Waxing Crescent, 25% visible
METAR SBIH 041900Z 12004KT 7000 FEW021 FEW024TCU SCT100 32/24 Q1008

10-Day Weather Forecast

No radar image for this location.
×

Almanac

Astronomy

Dec. 04, 2016 Rise Set
Actual Time
Civil Twilight
Nautical Twilight
Astronomical Twilight
Moon
Length of Visible Light
Length of Day
Tomorrow will be .
, % of the Moon is Illuminated

Today's Extremes

Country Highs Country Lows

Community

WunderPhotos

Upload Photos

1,955,652 photos uploaded!

WunderBlog® & News

Nearby

Air Quality

  Air Quality AQ Index Pollutant
Not available.

Snow Depth

Station Depth Elevation

Earthquake Activity

City Distance Mag. Time & Date
Minimum magnitude displayed is 2.5.

Coastal Water Temperatures

Place Temperature

Stations

Nearby Weather Stations

Station Location Temp. Windchill Dew Point Humidity Wind Precip. Elev Updated Type